sensor_id;sensor_type;location;lat;lon;timestamp;P1;durP1;ratioP1;P2;durP2;ratioP2
13493;SDS011;6819;50.886;4.332;2022-09-09T00:00:37;6.30;;;2.17;;
13493;SDS011;6819;50.886;4.332;2022-09-09T00:03:08;2.83;;;1.60;;
13493;SDS011;6819;50.886;4.332;2022-09-09T00:05:54;4.07;;;1.70;;
13493;SDS011;6819;50.886;4.332;2022-09-09T00:11:51;3.35;;;1.70;;
13493;SDS011;6819;50.886;4.332;2022-09-09T00:14:32;7.38;;;1.50;;
13493;SDS011;6819;50.886;4.332;2022-09-09T00:17:35;6.15;;;1.95;;
13493;SDS011;6819;50.886;4.332;2022-09-09T00:20:21;8.63;;;2.00;;
13493;SDS011;6819;50.886;4.332;2022-09-09T00:23:25;4.65;;;1.90;;
13493;SDS011;6819;50.886;4.332;2022-09-09T00:25:57;9.30;;;2.00;;
13493;SDS011;6819;50.886;4.332;2022-09-09T00:28:50;6.28;;;2.00;;
13493;SDS011;6819;50.886;4.332;2022-09-09T00:31:26;8.38;;;1.95;;
13493;SDS011;6819;50.886;4.332;2022-09-09T00:33:54;4.03;;;1.45;;
13493;SDS011;6819;50.886;4.332;2022-09-09T00:36:49;4.20;;;1.60;;
13493;SDS011;6819;50.886;4.332;2022-09-09T00:39:34;4.90;;;2.00;;
13493;SDS011;6819;50.886;4.332;2022-09-09T00:58:06;4.30;;;1.90;;
13493;SDS011;6819;50.886;4.332;2022-09-09T01:03:22;9.10;;;1.90;;
13493;SDS011;6819;50.886;4.332;2022-09-09T01:14:19;13.55;;;2.05;;
13493;SDS011;6819;50.886;4.332;2022-09-09T01:17:05;5.38;;;1.60;;
13493;SDS011;6819;50.886;4.332;2022-09-09T01:25:05;5.57;;;1.75;;
13493;SDS011;6819;50.886;4.332;2022-09-09T01:27:50;3.33;;;1.45;;
13493;SDS011;6819;50.886;4.332;2022-09-09T01:30:17;7.07;;;1.40;;
13493;SDS011;6819;50.886;4.332;2022-09-09T01:32:44;4.22;;;1.48;;
13493;SDS011;6819;50.886;4.332;2022-09-09T01:37:47;4.60;;;1.60;;
13493;SDS011;6819;50.886;4.332;2022-09-09T01:40:13;11.30;;;1.58;;
13493;SDS011;6819;50.886;4.332;2022-09-09T01:42:38;5.35;;;1.55;;
13493;SDS011;6819;50.886;4.332;2022-09-09T01:45:04;5.80;;;1.55;;
13493;SDS011;6819;50.886;4.332;2022-09-09T01:47:30;5.18;;;1.50;;
13493;SDS011;6819;50.886;4.332;2022-09-09T01:49:56;13.90;;;2.10;;
13493;SDS011;6819;50.886;4.332;2022-09-09T01:52:22;2.92;;;1.70;;
13493;SDS011;6819;50.886;4.332;2022-09-09T01:54:47;6.65;;;1.70;;
13493;SDS011;6819;50.886;4.332;2022-09-09T01:59:50;7.35;;;1.65;;
13493;SDS011;6819;50.886;4.332;2022-09-09T02:02:26;6.97;;;1.67;;
13493;SDS011;6819;50.886;4.332;2022-09-09T02:05:08;6.00;;;1.60;;
13493;SDS011;6819;50.886;4.332;2022-09-09T02:07:49;12.57;;;2.42;;
13493;SDS011;6819;50.886;4.332;2022-09-09T02:10:20;3.85;;;1.80;;
13493;SDS011;6819;50.886;4.332;2022-09-09T02:12:48;9.23;;;1.83;;
13493;SDS011;6819;50.886;4.332;2022-09-09T02:15:45;5.35;;;1.98;;
13493;SDS011;6819;50.886;4.332;2022-09-09T02:18:12;6.38;;;2.15;;
13493;SDS011;6819;50.886;4.332;2022-09-09T02:20:40;6.20;;;1.80;;
13493;SDS011;6819;50.886;4.332;2022-09-09T02:23:08;5.43;;;1.95;;
13493;SDS011;6819;50.886;4.332;2022-09-09T02:25:35;8.07;;;2.00;;
13493;SDS011;6819;50.886;4.332;2022-09-09T02:28:03;6.82;;;2.20;;
13493;SDS011;6819;50.886;4.332;2022-09-09T02:30:33;6.53;;;1.73;;
13493;SDS011;6819;50.886;4.332;2022-09-09T02:33:00;7.78;;;1.98;;
13493;SDS011;6819;50.886;4.332;2022-09-09T02:35:31;8.35;;;1.80;;
13493;SDS011;6819;50.886;4.332;2022-09-09T02:38:04;5.25;;;1.73;;
13493;SDS011;6819;50.886;4.332;2022-09-09T02:40:33;9.35;;;1.95;;
13493;SDS011;6819;50.886;4.332;2022-09-09T02:42:58;7.80;;;1.70;;
13493;SDS011;6819;50.886;4.332;2022-09-09T02:45:31;7.60;;;2.40;;
13493;SDS011;6819;50.886;4.332;2022-09-09T02:53:40;7.53;;;1.98;;
13493;SDS011;6819;50.886;4.332;2022-09-09T02:56:13;8.82;;;2.10;;
13493;SDS011;6819;50.886;4.332;2022-09-09T02:58:43;8.70;;;2.22;;
13493;SDS011;6819;50.886;4.332;2022-09-09T03:01:09;10.13;;;2.42;;
13493;SDS011;6819;50.886;4.332;2022-09-09T03:03:35;6.25;;;1.90;;
13493;SDS011;6819;50.886;4.332;2022-09-09T03:06:01;4.32;;;1.88;;
13493;SDS011;6819;50.886;4.332;2022-09-09T03:08:26;8.50;;;2.22;;
13493;SDS011;6819;50.886;4.332;2022-09-09T03:10:54;9.82;;;2.30;;
13493;SDS011;6819;50.886;4.332;2022-09-09T03:13:20;9.40;;;2.13;;
13493;SDS011;6819;50.886;4.332;2022-09-09T03:15:45;7.63;;;2.15;;
13493;SDS011;6819;50.886;4.332;2022-09-09T03:18:13;10.55;;;2.10;;
13493;SDS011;6819;50.886;4.332;2022-09-09T03:20:39;9.73;;;2.17;;
13493;SDS011;6819;50.886;4.332;2022-09-09T03:23:07;7.20;;;2.30;;
13493;SDS011;6819;50.886;4.332;2022-09-09T03:25:32;5.82;;;2.03;;
13493;SDS011;6819;50.886;4.332;2022-09-09T03:27:58;8.73;;;2.28;;
13493;SDS011;6819;50.886;4.332;2022-09-09T03:30:25;9.48;;;2.17;;
13493;SDS011;6819;50.886;4.332;2022-09-09T03:32:51;6.05;;;2.10;;
13493;SDS011;6819;50.886;4.332;2022-09-09T03:35:17;7.97;;;1.90;;
13493;SDS011;6819;50.886;4.332;2022-09-09T03:37:43;8.98;;;2.10;;
13493;SDS011;6819;50.886;4.332;2022-09-09T03:40:09;7.75;;;2.00;;
13493;SDS011;6819;50.886;4.332;2022-09-09T03:42:35;9.38;;;1.90;;
13493;SDS011;6819;50.886;4.332;2022-09-09T03:45:02;10.35;;;2.33;;
13493;SDS011;6819;50.886;4.332;2022-09-09T03:47:30;9.18;;;3.35;;
13493;SDS011;6819;50.886;4.332;2022-09-09T03:49:55;10.98;;;2.20;;
13493;SDS011;6819;50.886;4.332;2022-09-09T03:52:21;8.52;;;2.55;;
13493;SDS011;6819;50.886;4.332;2022-09-09T03:54:49;10.60;;;2.03;;
13493;SDS011;6819;50.886;4.332;2022-09-09T03:57:16;9.80;;;2.30;;
13493;SDS011;6819;50.886;4.332;2022-09-09T03:59:42;6.25;;;1.90;;
13493;SDS011;6819;50.886;4.332;2022-09-09T04:02:08;9.23;;;2.13;;
13493;SDS011;6819;50.886;4.332;2022-09-09T04:04:34;7.85;;;2.20;;
13493;SDS011;6819;50.886;4.332;2022-09-09T04:06:59;7.03;;;2.10;;
13493;SDS011;6819;50.886;4.332;2022-09-09T04:09:25;7.65;;;1.98;;
13493;SDS011;6819;50.886;4.332;2022-09-09T04:11:51;7.93;;;2.60;;
13493;SDS011;6819;50.886;4.332;2022-09-09T04:14:18;8.90;;;2.00;;
13493;SDS011;6819;50.886;4.332;2022-09-09T04:16:44;9.55;;;2.97;;
13493;SDS011;6819;50.886;4.332;2022-09-09T04:19:10;11.65;;;2.30;;
13493;SDS011;6819;50.886;4.332;2022-09-09T04:21:38;10.13;;;2.35;;
13493;SDS011;6819;50.886;4.332;2022-09-09T04:24:07;12.20;;;2.70;;
13493;SDS011;6819;50.886;4.332;2022-09-09T04:26:34;9.13;;;2.30;;
13493;SDS011;6819;50.886;4.332;2022-09-09T04:29:01;7.90;;;2.50;;
13493;SDS011;6819;50.886;4.332;2022-09-09T04:31:28;14.52;;;2.28;;
13493;SDS011;6819;50.886;4.332;2022-09-09T04:33:54;7.22;;;1.92;;
13493;SDS011;6819;50.886;4.332;2022-09-09T04:36:19;17.55;;;2.75;;
13493;SDS011;6819;50.886;4.332;2022-09-09T04:38:46;15.85;;;2.60;;
13493;SDS011;6819;50.886;4.332;2022-09-09T04:41:13;17.75;;;2.70;;
13493;SDS011;6819;50.886;4.332;2022-09-09T04:43:40;12.80;;;2.50;;
13493;SDS011;6819;50.886;4.332;2022-09-09T04:46:06;9.40;;;2.15;;
13493;SDS011;6819;50.886;4.332;2022-09-09T04:48:32;9.65;;;2.45;;
13493;SDS011;6819;50.886;4.332;2022-09-09T04:50:58;8.77;;;2.28;;
13493;SDS011;6819;50.886;4.332;2022-09-09T04:53:31;11.40;;;2.30;;
13493;SDS011;6819;50.886;4.332;2022-09-09T04:56:06;10.10;;;2.78;;
13493;SDS011;6819;50.886;4.332;2022-09-09T04:58:32;10.68;;;2.97;;
13493;SDS011;6819;50.886;4.332;2022-09-09T05:03:56;14.10;;;2.75;;
13493;SDS011;6819;50.886;4.332;2022-09-09T05:06:21;6.63;;;2.03;;
13493;SDS011;6819;50.886;4.332;2022-09-09T05:08:47;10.95;;;2.67;;
13493;SDS011;6819;50.886;4.332;2022-09-09T05:11:18;8.40;;;2.35;;
13493;SDS011;6819;50.886;4.332;2022-09-09T05:13:49;19.85;;;2.47;;
13493;SDS011;6819;50.886;4.332;2022-09-09T05:16:15;9.68;;;2.50;;
13493;SDS011;6819;50.886;4.332;2022-09-09T05:18:42;8.57;;;2.92;;
13493;SDS011;6819;50.886;4.332;2022-09-09T05:21:09;11.75;;;2.45;;
13493;SDS011;6819;50.886;4.332;2022-09-09T05:23:35;9.73;;;2.67;;
13493;SDS011;6819;50.886;4.332;2022-09-09T05:26:02;7.30;;;2.65;;
13493;SDS011;6819;50.886;4.332;2022-09-09T05:28:29;8.88;;;2.45;;
13493;SDS011;6819;50.886;4.332;2022-09-09T05:30:59;5.75;;;2.25;;
13493;SDS011;6819;50.886;4.332;2022-09-09T05:33:26;6.55;;;2.20;;
13493;SDS011;6819;50.886;4.332;2022-09-09T05:35:59;10.15;;;2.55;;
13493;SDS011;6819;50.886;4.332;2022-09-09T05:38:29;14.40;;;2.95;;
13493;SDS011;6819;50.886;4.332;2022-09-09T05:40:56;5.22;;;2.05;;
13493;SDS011;6819;50.886;4.332;2022-09-09T05:43:22;12.93;;;3.45;;
13493;SDS011;6819;50.886;4.332;2022-09-09T05:45:57;13.13;;;2.33;;
13493;SDS011;6819;50.886;4.332;2022-09-09T05:48:29;11.30;;;2.60;;
13493;SDS011;6819;50.886;4.332;2022-09-09T05:50:55;7.28;;;2.40;;
13493;SDS011;6819;50.886;4.332;2022-09-09T05:53:21;10.70;;;2.70;;
13493;SDS011;6819;50.886;4.332;2022-09-09T05:55:47;9.20;;;2.47;;
13493;SDS011;6819;50.886;4.332;2022-09-09T05:58:13;16.13;;;3.17;;
13493;SDS011;6819;50.886;4.332;2022-09-09T06:00:40;11.27;;;2.60;;
13493;SDS011;6819;50.886;4.332;2022-09-09T06:03:06;11.98;;;2.67;;
13493;SDS011;6819;50.886;4.332;2022-09-09T06:05:31;8.40;;;2.75;;
13493;SDS011;6819;50.886;4.332;2022-09-09T06:07:57;14.30;;;2.85;;
13493;SDS011;6819;50.886;4.332;2022-09-09T06:10:23;16.65;;;3.42;;
13493;SDS011;6819;50.886;4.332;2022-09-09T06:12:48;10.77;;;2.47;;
13493;SDS011;6819;50.886;4.332;2022-09-09T06:15:17;11.63;;;3.15;;
13493;SDS011;6819;50.886;4.332;2022-09-09T06:17:43;10.80;;;2.38;;
13493;SDS011;6819;50.886;4.332;2022-09-09T06:20:10;12.63;;;2.50;;
13493;SDS011;6819;50.886;4.332;2022-09-09T06:22:35;13.93;;;2.30;;
13493;SDS011;6819;50.886;4.332;2022-09-09T06:25:04;9.70;;;2.15;;
13493;SDS011;6819;50.886;4.332;2022-09-09T06:27:29;10.63;;;3.03;;
13493;SDS011;6819;50.886;4.332;2022-09-09T06:29:56;8.77;;;2.20;;
13493;SDS011;6819;50.886;4.332;2022-09-09T06:32:22;11.15;;;2.17;;
13493;SDS011;6819;50.886;4.332;2022-09-09T06:34:47;11.43;;;2.38;;
13493;SDS011;6819;50.886;4.332;2022-09-09T06:37:14;13.77;;;2.10;;
13493;SDS011;6819;50.886;4.332;2022-09-09T06:39:40;13.40;;;2.40;;
13493;SDS011;6819;50.886;4.332;2022-09-09T06:42:06;7.15;;;2.15;;
13493;SDS011;6819;50.886;4.332;2022-09-09T06:44:33;15.48;;;2.40;;
13493;SDS011;6819;50.886;4.332;2022-09-09T06:46:59;8.55;;;2.03;;
13493;SDS011;6819;50.886;4.332;2022-09-09T06:49:25;9.48;;;2.67;;
13493;SDS011;6819;50.886;4.332;2022-09-09T06:51:50;13.65;;;1.90;;
13493;SDS011;6819;50.886;4.332;2022-09-09T06:54:17;8.30;;;2.25;;
13493;SDS011;6819;50.886;4.332;2022-09-09T06:56:43;11.82;;;2.53;;
13493;SDS011;6819;50.886;4.332;2022-09-09T06:59:10;16.88;;;3.47;;
13493;SDS011;6819;50.886;4.332;2022-09-09T07:01:40;11.60;;;2.47;;
13493;SDS011;6819;50.886;4.332;2022-09-09T07:04:11;10.73;;;2.70;;
13493;SDS011;6819;50.886;4.332;2022-09-09T07:06:42;10.00;;;2.33;;
13493;SDS011;6819;50.886;4.332;2022-09-09T07:09:10;11.90;;;2.13;;
13493;SDS011;6819;50.886;4.332;2022-09-09T07:11:39;13.90;;;2.28;;
13493;SDS011;6819;50.886;4.332;2022-09-09T07:14:10;11.02;;;2.22;;
13493;SDS011;6819;50.886;4.332;2022-09-09T07:16:42;8.50;;;2.10;;
13493;SDS011;6819;50.886;4.332;2022-09-09T07:19:09;8.57;;;2.25;;
13493;SDS011;6819;50.886;4.332;2022-09-09T07:21:36;10.90;;;2.67;;
13493;SDS011;6819;50.886;4.332;2022-09-09T07:24:02;6.10;;;1.63;;
13493;SDS011;6819;50.886;4.332;2022-09-09T07:26:30;12.90;;;2.20;;
13493;SDS011;6819;50.886;4.332;2022-09-09T07:28:56;11.95;;;2.40;;
13493;SDS011;6819;50.886;4.332;2022-09-09T07:31:26;12.63;;;2.67;;
13493;SDS011;6819;50.886;4.332;2022-09-09T07:33:55;7.72;;;1.83;;
13493;SDS011;6819;50.886;4.332;2022-09-09T07:36:22;10.57;;;1.90;;
13493;SDS011;6819;50.886;4.332;2022-09-09T07:38:51;11.75;;;2.40;;
13493;SDS011;6819;50.886;4.332;2022-09-09T07:41:23;13.30;;;2.85;;
13493;SDS011;6819;50.886;4.332;2022-09-09T07:43:51;7.97;;;2.00;;
13493;SDS011;6819;50.886;4.332;2022-09-09T07:46:22;10.75;;;2.47;;
13493;SDS011;6819;50.886;4.332;2022-09-09T07:48:50;11.73;;;2.15;;
13493;SDS011;6819;50.886;4.332;2022-09-09T07:51:21;6.95;;;2.20;;
13493;SDS011;6819;50.886;4.332;2022-09-09T07:53:51;10.00;;;2.20;;
13493;SDS011;6819;50.886;4.332;2022-09-09T07:56:19;12.02;;;2.10;;
13493;SDS011;6819;50.886;4.332;2022-09-09T07:58:48;8.45;;;2.55;;
13493;SDS011;6819;50.886;4.332;2022-09-09T08:01:16;9.45;;;2.38;;
13493;SDS011;6819;50.886;4.332;2022-09-09T08:03:45;7.50;;;2.20;;
13493;SDS011;6819;50.886;4.332;2022-09-09T08:06:12;9.48;;;2.33;;
13493;SDS011;6819;50.886;4.332;2022-09-09T08:08:38;15.70;;;3.10;;
13493;SDS011;6819;50.886;4.332;2022-09-09T08:11:13;6.32;;;1.98;;
13493;SDS011;6819;50.886;4.332;2022-09-09T08:13:40;9.77;;;2.33;;
13493;SDS011;6819;50.886;4.332;2022-09-09T08:18:33;7.60;;;1.88;;
13493;SDS011;6819;50.886;4.332;2022-09-09T08:21:21;12.43;;;3.08;;
13493;SDS011;6819;50.886;4.332;2022-09-09T08:23:47;15.57;;;2.22;;
13493;SDS011;6819;50.886;4.332;2022-09-09T08:26:14;10.65;;;2.83;;
13493;SDS011;6819;50.886;4.332;2022-09-09T08:28:41;8.45;;;2.88;;
13493;SDS011;6819;50.886;4.332;2022-09-09T08:31:09;7.60;;;3.35;;
13493;SDS011;6819;50.886;4.332;2022-09-09T08:33:37;9.40;;;2.42;;
13493;SDS011;6819;50.886;4.332;2022-09-09T08:36:04;9.68;;;2.10;;
13493;SDS011;6819;50.886;4.332;2022-09-09T08:38:31;7.95;;;2.55;;
13493;SDS011;6819;50.886;4.332;2022-09-09T08:41:41;7.15;;;2.08;;
13493;SDS011;6819;50.886;4.332;2022-09-09T08:43:50;7.95;;;2.08;;
13493;SDS011;6819;50.886;4.332;2022-09-09T08:46:32;7.03;;;2.35;;
13493;SDS011;6819;50.886;4.332;2022-09-09T08:51:55;9.90;;;2.65;;
13493;SDS011;6819;50.886;4.332;2022-09-09T08:54:22;6.78;;;2.35;;
13493;SDS011;6819;50.886;4.332;2022-09-09T08:56:48;9.00;;;2.42;;
13493;SDS011;6819;50.886;4.332;2022-09-09T08:59:16;9.10;;;2.50;;
13493;SDS011;6819;50.886;4.332;2022-09-09T09:01:56;10.60;;;2.65;;
13493;SDS011;6819;50.886;4.332;2022-09-09T09:04:30;9.70;;;2.67;;
13493;SDS011;6819;50.886;4.332;2022-09-09T09:12:46;5.05;;;1.92;;
13493;SDS011;6819;50.886;4.332;2022-09-09T09:15:21;13.25;;;2.90;;
13493;SDS011;6819;50.886;4.332;2022-09-09T09:17:49;13.10;;;2.65;;
13493;SDS011;6819;50.886;4.332;2022-09-09T09:20:16;9.43;;;2.42;;
13493;SDS011;6819;50.886;4.332;2022-09-09T09:22:49;8.82;;;2.63;;
13493;SDS011;6819;50.886;4.332;2022-09-09T09:30:26;6.10;;;2.03;;
13493;SDS011;6819;50.886;4.332;2022-09-09T09:33:05;9.05;;;2.65;;
13493;SDS011;6819;50.886;4.332;2022-09-09T09:35:45;8.60;;;2.55;;
13493;SDS011;6819;50.886;4.332;2022-09-09T09:38:23;9.68;;;2.42;;
13493;SDS011;6819;50.886;4.332;2022-09-09T09:40:54;10.18;;;2.75;;
13493;SDS011;6819;50.886;4.332;2022-09-09T09:43:33;8.88;;;2.72;;
13493;SDS011;6819;50.886;4.332;2022-09-09T09:46:00;10.57;;;2.38;;
13493;SDS011;6819;50.886;4.332;2022-09-09T09:48:29;11.23;;;2.65;;
13493;SDS011;6819;50.886;4.332;2022-09-09T09:50:58;6.18;;;2.50;;
13493;SDS011;6819;50.886;4.332;2022-09-09T09:53:34;12.60;;;3.25;;
13493;SDS011;6819;50.886;4.332;2022-09-09T09:56:08;5.63;;;2.20;;
13493;SDS011;6819;50.886;4.332;2022-09-09T10:01:24;2.92;;;1.85;;
13493;SDS011;6819;50.886;4.332;2022-09-09T10:03:51;9.35;;;2.03;;
13493;SDS011;6819;50.886;4.332;2022-09-09T10:06:35;7.63;;;1.95;;
13493;SDS011;6819;50.886;4.332;2022-09-09T10:09:03;9.88;;;2.45;;
13493;SDS011;6819;50.886;4.332;2022-09-09T10:11:50;6.18;;;2.08;;
13493;SDS011;6819;50.886;4.332;2022-09-09T10:22:53;8.63;;;1.95;;
13493;SDS011;6819;50.886;4.332;2022-09-09T10:25:49;8.60;;;2.03;;
13493;SDS011;6819;50.886;4.332;2022-09-09T10:31:36;6.70;;;1.85;;
13493;SDS011;6819;50.886;4.332;2022-09-09T10:37:04;10.70;;;2.30;;
13493;SDS011;6819;50.886;4.332;2022-09-09T10:39:48;7.55;;;1.92;;
13493;SDS011;6819;50.886;4.332;2022-09-09T10:42:18;7.35;;;2.30;;
13493;SDS011;6819;50.886;4.332;2022-09-09T10:47:34;8.82;;;2.15;;
13493;SDS011;6819;50.886;4.332;2022-09-09T10:56:11;11.00;;;2.13;;
13493;SDS011;6819;50.886;4.332;2022-09-09T10:58:42;12.18;;;2.15;;
13493;SDS011;6819;50.886;4.332;2022-09-09T11:01:15;7.43;;;1.80;;
13493;SDS011;6819;50.886;4.332;2022-09-09T11:03:43;8.13;;;2.65;;
13493;SDS011;6819;50.886;4.332;2022-09-09T11:06:21;7.30;;;2.15;;
13493;SDS011;6819;50.886;4.332;2022-09-09T11:08:51;9.13;;;2.10;;
13493;SDS011;6819;50.886;4.332;2022-09-09T11:12:00;7.97;;;2.17;;
13493;SDS011;6819;50.886;4.332;2022-09-09T11:17:42;7.43;;;1.95;;
13493;SDS011;6819;50.886;4.332;2022-09-09T11:20:12;5.38;;;1.77;;
13493;SDS011;6819;50.886;4.332;2022-09-09T11:25:23;6.25;;;1.77;;
13493;SDS011;6819;50.886;4.332;2022-09-09T11:31:13;6.22;;;1.80;;
13493;SDS011;6819;50.886;4.332;2022-09-09T11:39:37;4.95;;;1.77;;
13493;SDS011;6819;50.886;4.332;2022-09-09T11:42:29;9.90;;;1.88;;
13493;SDS011;6819;50.886;4.332;2022-09-09T11:44:55;5.88;;;1.63;;
13493;SDS011;6819;50.886;4.332;2022-09-09T11:49:54;8.75;;;1.90;;
13493;SDS011;6819;50.886;4.332;2022-09-09T11:52:45;7.97;;;1.88;;
13493;SDS011;6819;50.886;4.332;2022-09-09T11:55:24;6.40;;;2.00;;
13493;SDS011;6819;50.886;4.332;2022-09-09T11:57:57;4.22;;;1.70;;
13493;SDS011;6819;50.886;4.332;2022-09-09T12:00:43;6.93;;;2.03;;
13493;SDS011;6819;50.886;4.332;2022-09-09T12:06:30;6.07;;;2.00;;
13493;SDS011;6819;50.886;4.332;2022-09-09T12:11:46;6.53;;;2.15;;
13493;SDS011;6819;50.886;4.332;2022-09-09T12:19:45;4.45;;;1.58;;
13493;SDS011;6819;50.886;4.332;2022-09-09T12:27:35;8.55;;;2.00;;
13493;SDS011;6819;50.886;4.332;2022-09-09T12:30:08;7.07;;;2.15;;
13493;SDS011;6819;50.886;4.332;2022-09-09T12:32:36;11.02;;;1.85;;
13493;SDS011;6819;50.886;4.332;2022-09-09T12:35:04;5.70;;;1.77;;
13493;SDS011;6819;50.886;4.332;2022-09-09T12:37:40;7.45;;;1.60;;
13493;SDS011;6819;50.886;4.332;2022-09-09T12:40:21;7.00;;;1.70;;
13493;SDS011;6819;50.886;4.332;2022-09-09T12:42:49;7.97;;;2.17;;
13493;SDS011;6819;50.886;4.332;2022-09-09T12:45:19;3.97;;;1.42;;
13493;SDS011;6819;50.886;4.332;2022-09-09T12:50:22;5.15;;;1.50;;
13493;SDS011;6819;50.886;4.332;2022-09-09T12:52:56;3.65;;;1.55;;
13493;SDS011;6819;50.886;4.332;2022-09-09T12:55:25;4.80;;;1.55;;
13493;SDS011;6819;50.886;4.332;2022-09-09T12:57:55;6.30;;;1.45;;
13493;SDS011;6819;50.886;4.332;2022-09-09T13:00:22;4.75;;;1.40;;
13493;SDS011;6819;50.886;4.332;2022-09-09T13:02:56;4.50;;;1.50;;
13493;SDS011;6819;50.886;4.332;2022-09-09T13:08:04;8.75;;;1.50;;
13493;SDS011;6819;50.886;4.332;2022-09-09T13:10:33;2.92;;;1.30;;
13493;SDS011;6819;50.886;4.332;2022-09-09T13:13:04;3.88;;;1.35;;
13493;SDS011;6819;50.886;4.332;2022-09-09T13:15:38;4.03;;;1.40;;
13493;SDS011;6819;50.886;4.332;2022-09-09T13:18:05;5.05;;;1.38;;
13493;SDS011;6819;50.886;4.332;2022-09-09T13:20:36;2.85;;;1.55;;
13493;SDS011;6819;50.886;4.332;2022-09-09T13:23:02;8.38;;;1.55;;
13493;SDS011;6819;50.886;4.332;2022-09-09T13:25:28;5.07;;;1.67;;
13493;SDS011;6819;50.886;4.332;2022-09-09T13:28:04;3.78;;;1.45;;
13493;SDS011;6819;50.886;4.332;2022-09-09T13:30:31;5.93;;;1.80;;
13493;SDS011;6819;50.886;4.332;2022-09-09T13:35:30;5.88;;;1.60;;
13493;SDS011;6819;50.886;4.332;2022-09-09T13:37:57;3.55;;;1.50;;
13493;SDS011;6819;50.886;4.332;2022-09-09T13:40:24;3.67;;;1.88;;
13493;SDS011;6819;50.886;4.332;2022-09-09T13:42:51;2.67;;;1.50;;
13493;SDS011;6819;50.886;4.332;2022-09-09T13:45:21;3.42;;;1.60;;
13493;SDS011;6819;50.886;4.332;2022-09-09T13:47:52;4.88;;;1.75;;
13493;SDS011;6819;50.886;4.332;2022-09-09T13:52:52;4.43;;;1.63;;
13493;SDS011;6819;50.886;4.332;2022-09-09T13:55:25;4.40;;;1.50;;
13493;SDS011;6819;50.886;4.332;2022-09-09T13:58:02;6.50;;;1.30;;
13493;SDS011;6819;50.886;4.332;2022-09-09T14:00:30;5.82;;;1.40;;
13493;SDS011;6819;50.886;4.332;2022-09-09T14:02:58;4.45;;;1.58;;
13493;SDS011;6819;50.886;4.332;2022-09-09T14:05:27;4.65;;;1.40;;
13493;SDS011;6819;50.886;4.332;2022-09-09T14:07:53;4.35;;;1.20;;
13493;SDS011;6819;50.886;4.332;2022-09-09T14:10:19;5.45;;;1.52;;
13493;SDS011;6819;50.886;4.332;2022-09-09T14:12:45;6.70;;;1.45;;
13493;SDS011;6819;50.886;4.332;2022-09-09T14:15:11;2.95;;;1.35;;
13493;SDS011;6819;50.886;4.332;2022-09-09T14:17:37;4.93;;;1.42;;
13493;SDS011;6819;50.886;4.332;2022-09-09T14:20:04;4.22;;;1.70;;
13493;SDS011;6819;50.886;4.332;2022-09-09T14:22:32;3.42;;;1.20;;
13493;SDS011;6819;50.886;4.332;2022-09-09T14:24:58;4.60;;;1.60;;
13493;SDS011;6819;50.886;4.332;2022-09-09T14:27:24;2.40;;;1.50;;
13493;SDS011;6819;50.886;4.332;2022-09-09T14:29:51;4.80;;;1.63;;
13493;SDS011;6819;50.886;4.332;2022-09-09T14:32:17;5.78;;;1.65;;
13493;SDS011;6819;50.886;4.332;2022-09-09T14:34:43;10.23;;;1.80;;
13493;SDS011;6819;50.886;4.332;2022-09-09T14:37:09;3.47;;;1.50;;
13493;SDS011;6819;50.886;4.332;2022-09-09T14:39:35;4.20;;;1.80;;
13493;SDS011;6819;50.886;4.332;2022-09-09T14:42:00;6.13;;;1.50;;
13493;SDS011;6819;50.886;4.332;2022-09-09T14:44:27;4.90;;;2.45;;
13493;SDS011;6819;50.886;4.332;2022-09-09T14:46:53;3.55;;;1.63;;
13493;SDS011;6819;50.886;4.332;2022-09-09T14:49:19;3.60;;;1.60;;
13493;SDS011;6819;50.886;4.332;2022-09-09T14:51:45;4.00;;;1.48;;
13493;SDS011;6819;50.886;4.332;2022-09-09T14:54:11;5.45;;;1.58;;
13493;SDS011;6819;50.886;4.332;2022-09-09T14:56:37;6.03;;;1.70;;
13493;SDS011;6819;50.886;4.332;2022-09-09T14:59:03;2.20;;;1.30;;
13493;SDS011;6819;50.886;4.332;2022-09-09T15:01:29;2.20;;;1.33;;
13493;SDS011;6819;50.886;4.332;2022-09-09T15:04:00;4.07;;;1.50;;
13493;SDS011;6819;50.886;4.332;2022-09-09T15:06:30;2.92;;;1.38;;
13493;SDS011;6819;50.886;4.332;2022-09-09T15:08:58;2.63;;;1.38;;
13493;SDS011;6819;50.886;4.332;2022-09-09T15:11:28;3.05;;;1.30;;
13493;SDS011;6819;50.886;4.332;2022-09-09T15:13:56;3.97;;;1.42;;
13493;SDS011;6819;50.886;4.332;2022-09-09T15:16:24;3.63;;;1.35;;
13493;SDS011;6819;50.886;4.332;2022-09-09T15:18:52;9.48;;;1.70;;
13493;SDS011;6819;50.886;4.332;2022-09-09T15:21:20;5.35;;;1.88;;
13493;SDS011;6819;50.886;4.332;2022-09-09T15:23:47;9.75;;;2.95;;
13493;SDS011;6819;50.886;4.332;2022-09-09T15:26:13;3.00;;;1.50;;
13493;SDS011;6819;50.886;4.332;2022-09-09T15:28:40;6.13;;;1.88;;
13493;SDS011;6819;50.886;4.332;2022-09-09T15:31:11;4.88;;;1.55;;
13493;SDS011;6819;50.886;4.332;2022-09-09T15:33:39;2.97;;;1.20;;
13493;SDS011;6819;50.886;4.332;2022-09-09T15:36:25;7.38;;;1.98;;
13493;SDS011;6819;50.886;4.332;2022-09-09T15:39:02;5.80;;;1.70;;
13493;SDS011;6819;50.886;4.332;2022-09-09T15:41:29;5.80;;;2.17;;
13493;SDS011;6819;50.886;4.332;2022-09-09T15:43:58;6.47;;;1.50;;
13493;SDS011;6819;50.886;4.332;2022-09-09T15:46:29;7.53;;;1.67;;
13493;SDS011;6819;50.886;4.332;2022-09-09T15:51:38;3.22;;;1.67;;
13493;SDS011;6819;50.886;4.332;2022-09-09T15:54:12;6.00;;;1.75;;
13493;SDS011;6819;50.886;4.332;2022-09-09T15:56:42;6.15;;;1.60;;
13493;SDS011;6819;50.886;4.332;2022-09-09T15:59:08;3.15;;;1.30;;
13493;SDS011;6819;50.886;4.332;2022-09-09T16:01:34;3.35;;;1.65;;
13493;SDS011;6819;50.886;4.332;2022-09-09T16:04:01;4.78;;;2.03;;
13493;SDS011;6819;50.886;4.332;2022-09-09T16:06:28;3.08;;;1.50;;
13493;SDS011;6819;50.886;4.332;2022-09-09T16:08:55;4.03;;;1.63;;
13493;SDS011;6819;50.886;4.332;2022-09-09T16:11:23;7.13;;;1.98;;
13493;SDS011;6819;50.886;4.332;2022-09-09T16:13:54;5.32;;;1.63;;
13493;SDS011;6819;50.886;4.332;2022-09-09T16:16:21;6.25;;;1.88;;
13493;SDS011;6819;50.886;4.332;2022-09-09T16:18:53;5.38;;;2.00;;
13493;SDS011;6819;50.886;4.332;2022-09-09T16:21:27;5.38;;;1.50;;
13493;SDS011;6819;50.886;4.332;2022-09-09T16:23:58;4.07;;;1.70;;
13493;SDS011;6819;50.886;4.332;2022-09-09T16:26:26;6.05;;;1.67;;
13493;SDS011;6819;50.886;4.332;2022-09-09T16:28:52;3.33;;;1.40;;
13493;SDS011;6819;50.886;4.332;2022-09-09T16:31:20;5.65;;;1.73;;
13493;SDS011;6819;50.886;4.332;2022-09-09T16:33:49;3.92;;;1.52;;
13493;SDS011;6819;50.886;4.332;2022-09-09T16:36:19;4.50;;;1.33;;
13493;SDS011;6819;50.886;4.332;2022-09-09T16:38:56;3.67;;;1.70;;
13493;SDS011;6819;50.886;4.332;2022-09-09T16:41:24;2.60;;;1.58;;
13493;SDS011;6819;50.886;4.332;2022-09-09T16:43:52;2.78;;;1.65;;
13493;SDS011;6819;50.886;4.332;2022-09-09T16:46:20;5.93;;;1.83;;
13493;SDS011;6819;50.886;4.332;2022-09-09T16:48:46;2.75;;;1.30;;
13493;SDS011;6819;50.886;4.332;2022-09-09T16:51:15;4.60;;;1.40;;
13493;SDS011;6819;50.886;4.332;2022-09-09T16:53:41;2.78;;;1.10;;
13493;SDS011;6819;50.886;4.332;2022-09-09T16:56:09;3.28;;;1.20;;
13493;SDS011;6819;50.886;4.332;2022-09-09T16:58:36;1.90;;;1.10;;
13493;SDS011;6819;50.886;4.332;2022-09-09T17:01:03;2.70;;;1.10;;
13493;SDS011;6819;50.886;4.332;2022-09-09T17:03:29;5.25;;;1.25;;
13493;SDS011;6819;50.886;4.332;2022-09-09T17:05:56;2.70;;;1.50;;
13493;SDS011;6819;50.886;4.332;2022-09-09T17:08:23;4.10;;;1.52;;
13493;SDS011;6819;50.886;4.332;2022-09-09T17:10:49;4.40;;;1.48;;
13493;SDS011;6819;50.886;4.332;2022-09-09T17:13:15;3.50;;;1.30;;
13493;SDS011;6819;50.886;4.332;2022-09-09T17:15:44;4.53;;;1.50;;
13493;SDS011;6819;50.886;4.332;2022-09-09T17:18:11;4.13;;;1.33;;
13493;SDS011;6819;50.886;4.332;2022-09-09T17:20:40;7.13;;;2.05;;
13493;SDS011;6819;50.886;4.332;2022-09-09T17:23:07;6.57;;;1.50;;
13493;SDS011;6819;50.886;4.332;2022-09-09T17:25:34;7.18;;;1.50;;
13493;SDS011;6819;50.886;4.332;2022-09-09T17:28:00;5.60;;;1.58;;
13493;SDS011;6819;50.886;4.332;2022-09-09T17:30:27;6.63;;;1.58;;
13493;SDS011;6819;50.886;4.332;2022-09-09T17:32:53;5.50;;;1.60;;